sensor_id;sensor_type;location;lat;lon;timestamp;pressure;altitude;pressure_sealevel;temperature;humidity
72124;BME280;63818;37.134;-8.548;2024-02-16T00:01:08;102076.7;;;17.0;84.4
72124;BME280;63818;37.134;-8.548;2024-02-16T00:05:56;102069.9;;;17.0;84.2
72124;BME280;63818;37.134;-8.548;2024-02-16T00:10:44;102071.4;;;17.0;84.1
72124;BME280;63818;37.134;-8.548;2024-02-16T00:15:32;102072.9;;;17.0;83.9
72124;BME280;63818;37.134;-8.548;2024-02-16T00:20:20;102062.5;;;17.0;84.3
72124;BME280;63818;37.134;-8.548;2024-02-16T00:25:09;102064.4;;;17.0;84.3
72124;BME280;63818;37.134;-8.548;2024-02-16T00:29:57;102065.5;;;16.9;84.3
72124;BME280;63818;37.134;-8.548;2024-02-16T00:34:45;102066.6;;;16.9;84.6
72124;BME280;63818;37.134;-8.548;2024-02-16T00:39:33;102075.9;;;16.9;84.3
72124;BME280;63818;37.134;-8.548;2024-02-16T00:44:24;102082.6;;;16.9;84.3
72124;BME280;63818;37.134;-8.548;2024-02-16T00:49:11;102075.8;;;16.8;84.8
72124;BME280;63818;37.134;-8.548;2024-02-16T00:53:59;102079.3;;;16.7;84.9
72124;BME280;63818;37.134;-8.548;2024-02-16T00:58:47;102092.4;;;16.6;85.2
72124;BME280;63818;37.134;-8.548;2024-02-16T01:03:35;102088.2;;;16.6;85.5
72124;BME280;63818;37.134;-8.548;2024-02-16T01:08:23;102104.3;;;16.5;85.2
72124;BME280;63818;37.134;-8.548;2024-02-16T01:13:13;102121.1;;;16.6;85.4
72124;BME280;63818;37.134;-8.548;2024-02-16T01:18:01;102126.4;;;16.6;85.7
72124;BME280;63818;37.134;-8.548;2024-02-16T01:22:49;102119.4;;;16.6;85.8
72124;BME280;63818;37.134;-8.548;2024-02-16T01:27:36;102127.2;;;16.6;85.9
72124;BME280;63818;37.134;-8.548;2024-02-16T01:32:25;102123.2;;;16.6;85.9
72124;BME280;63818;37.134;-8.548;2024-02-16T01:37:13;102131.4;;;16.6;85.4
72124;BME280;63818;37.134;-8.548;2024-02-16T01:42:00;102129.7;;;16.5;85.7
72124;BME280;63818;37.134;-8.548;2024-02-16T01:46:48;102132.1;;;16.5;85.7
72124;BME280;63818;37.134;-8.548;2024-02-16T01:51:36;102149.7;;;16.4;85.9
72124;BME280;63818;37.134;-8.548;2024-02-16T01:56:25;102151.6;;;16.4;86.2
72124;BME280;63818;37.134;-8.548;2024-02-16T02:01:12;102157.5;;;16.3;86.4
72124;BME280;63818;37.134;-8.548;2024-02-16T02:06:00;102146.7;;;16.3;86.7
72124;BME280;63818;37.134;-8.548;2024-02-16T02:10:48;102160.6;;;16.3;86.5
72124;BME280;63818;37.134;-8.548;2024-02-16T02:15:36;102157.1;;;16.3;87.0
72124;BME280;63818;37.134;-8.548;2024-02-16T02:20:24;102162.8;;;16.3;87.2
72124;BME280;63818;37.134;-8.548;2024-02-16T02:25:12;102167.9;;;16.3;87.0
72124;BME280;63818;37.134;-8.548;2024-02-16T02:30:00;102164.5;;;16.3;86.8
72124;BME280;63818;37.134;-8.548;2024-02-16T02:34:48;102157.5;;;16.2;87.0
72124;BME280;63818;37.134;-8.548;2024-02-16T02:39:38;102171.0;;;16.2;86.6
72124;BME280;63818;37.134;-8.548;2024-02-16T02:44:26;102182.7;;;16.3;86.5
72124;BME280;63818;37.134;-8.548;2024-02-16T02:49:14;102187.4;;;16.1;86.1
72124;BME280;63818;37.134;-8.548;2024-02-16T02:54:02;102185.3;;;15.9;86.6
72124;BME280;63818;37.134;-8.548;2024-02-16T02:58:50;102189.3;;;15.9;87.0
72124;BME280;63818;37.134;-8.548;2024-02-16T03:03:38;102174.3;;;15.9;87.2
72124;BME280;63818;37.134;-8.548;2024-02-16T03:08:26;102173.5;;;15.9;87.3
72124;BME280;63818;37.134;-8.548;2024-02-16T03:13:14;102159.6;;;15.8;87.1
72124;BME280;63818;37.134;-8.548;2024-02-16T03:18:02;102161.7;;;15.9;87.2
72124;BME280;63818;37.134;-8.548;2024-02-16T03:22:52;102158.9;;;15.8;87.4
72124;BME280;63818;37.134;-8.548;2024-02-16T03:27:40;102144.7;;;15.8;87.6
72124;BME280;63818;37.134;-8.548;2024-02-16T03:32:28;102143.4;;;15.9;87.4
72124;BME280;63818;37.134;-8.548;2024-02-16T03:37:16;102158.9;;;16.0;87.4
72124;BME280;63818;37.134;-8.548;2024-02-16T03:42:04;102161.5;;;16.1;86.7
72124;BME280;63818;37.134;-8.548;2024-02-16T03:46:53;102148.2;;;16.0;86.8
72124;BME280;63818;37.134;-8.548;2024-02-16T03:51:41;102140.9;;;16.0;86.6
72124;BME280;63818;37.134;-8.548;2024-02-16T03:56:28;102133.9;;;16.0;86.3
72124;BME280;63818;37.134;-8.548;2024-02-16T04:01:16;102121.0;;;16.0;85.7
72124;BME280;63818;37.134;-8.548;2024-02-16T04:06:04;102124.3;;;16.0;85.5
72124;BME280;63818;37.134;-8.548;2024-02-16T04:10:53;102113.2;;;15.9;85.3
72124;BME280;63818;37.134;-8.548;2024-02-16T04:15:40;102121.1;;;16.0;85.6
72124;BME280;63818;37.134;-8.548;2024-02-16T04:20:31;102120.8;;;16.0;85.4
72124;BME280;63818;37.134;-8.548;2024-02-16T04:25:19;102123.5;;;16.0;85.2
72124;BME280;63818;37.134;-8.548;2024-02-16T04:30:07;102147.1;;;16.0;85.6
72124;BME280;63818;37.134;-8.548;2024-02-16T04:34:55;102165.4;;;15.9;85.6
72124;BME280;63818;37.134;-8.548;2024-02-16T04:39:43;102156.1;;;15.9;85.6
72124;BME280;63818;37.134;-8.548;2024-02-16T04:44:31;102159.3;;;15.9;85.6
72124;BME280;63818;37.134;-8.548;2024-02-16T04:49:19;102167.8;;;15.9;85.6
72124;BME280;63818;37.134;-8.548;2024-02-16T04:54:07;102172.7;;;15.9;85.8
72124;BME280;63818;37.134;-8.548;2024-02-16T04:58:57;102148.5;;;15.9;85.9
72124;BME280;63818;37.134;-8.548;2024-02-16T05:03:45;102142.3;;;15.9;85.8
72124;BME280;63818;37.134;-8.548;2024-02-16T05:08:34;102132.5;;;15.9;85.4
72124;BME280;63818;37.134;-8.548;2024-02-16T05:13:22;102156.9;;;15.9;85.6
72124;BME280;63818;37.134;-8.548;2024-02-16T05:18:10;102162.3;;;15.9;85.4
72124;BME280;63818;37.134;-8.548;2024-02-16T05:22:58;102151.5;;;15.9;85.6
72124;BME280;63818;37.134;-8.548;2024-02-16T05:27:46;102173.9;;;15.8;85.6
72124;BME280;63818;37.134;-8.548;2024-02-16T05:32:35;102200.4;;;15.9;85.7
72124;BME280;63818;37.134;-8.548;2024-02-16T05:37:25;102179.2;;;15.9;85.9
72124;BME280;63818;37.134;-8.548;2024-02-16T05:42:13;102151.6;;;15.9;85.7
72124;BME280;63818;37.134;-8.548;2024-02-16T05:47:01;102143.6;;;15.8;85.8
72124;BME280;63818;37.134;-8.548;2024-02-16T05:51:51;102164.5;;;15.8;85.4
72124;BME280;63818;37.134;-8.548;2024-02-16T05:56:39;102171.8;;;15.8;85.7
72124;BME280;63818;37.134;-8.548;2024-02-16T06:01:27;102189.7;;;15.8;85.9
72124;BME280;63818;37.134;-8.548;2024-02-16T06:06:15;102188.1;;;15.8;85.7
72124;BME280;63818;37.134;-8.548;2024-02-16T06:11:06;102189.2;;;15.8;85.5
72124;BME280;63818;37.134;-8.548;2024-02-16T06:15:54;102191.1;;;15.8;85.6
72124;BME280;63818;37.134;-8.548;2024-02-16T06:20:42;102190.8;;;15.8;85.5
72124;BME280;63818;37.134;-8.548;2024-02-16T06:25:30;102188.2;;;15.8;85.3
72124;BME280;63818;37.134;-8.548;2024-02-16T06:30:18;102183.9;;;15.8;85.3
72124;BME280;63818;37.134;-8.548;2024-02-16T06:35:07;102187.5;;;15.7;85.1
72124;BME280;63818;37.134;-8.548;2024-02-16T06:39:55;102206.1;;;15.6;85.7
72124;BME280;63818;37.134;-8.548;2024-02-16T06:44:43;102209.4;;;15.6;85.8
72124;BME280;63818;37.134;-8.548;2024-02-16T06:49:31;102206.7;;;15.6;85.9
72124;BME280;63818;37.134;-8.548;2024-02-16T06:54:21;102220.3;;;15.6;85.7
72124;BME280;63818;37.134;-8.548;2024-02-16T06:59:09;102225.5;;;15.6;85.7
72124;BME280;63818;37.134;-8.548;2024-02-16T07:03:57;102238.2;;;15.6;85.9
72124;BME280;63818;37.134;-8.548;2024-02-16T07:08:45;102249.4;;;15.6;85.6
72124;BME280;63818;37.134;-8.548;2024-02-16T07:13:33;102249.4;;;15.6;85.9
72124;BME280;63818;37.134;-8.548;2024-02-16T07:18:21;102252.0;;;15.5;85.4
72124;BME280;63818;37.134;-8.548;2024-02-16T07:23:11;102270.7;;;15.4;85.7
72124;BME280;63818;37.134;-8.548;2024-02-16T07:27:59;102278.6;;;15.4;85.4
72124;BME280;63818;37.134;-8.548;2024-02-16T07:32:50;102286.2;;;15.4;85.5
72124;BME280;63818;37.134;-8.548;2024-02-16T07:37:38;102280.9;;;15.3;85.4
72124;BME280;63818;37.134;-8.548;2024-02-16T07:42:26;102292.6;;;15.3;85.4
72124;BME280;63818;37.134;-8.548;2024-02-16T07:47:13;102289.6;;;15.3;85.1
72124;BME280;63818;37.134;-8.548;2024-02-16T07:52:01;102303.6;;;15.4;85.5
72124;BME280;63818;37.134;-8.548;2024-02-16T07:56:50;102324.5;;;15.4;85.6
72124;BME280;63818;37.134;-8.548;2024-02-16T08:01:38;102329.5;;;15.4;85.4
72124;BME280;63818;37.134;-8.548;2024-02-16T08:06:26;102337.8;;;15.5;85.7
72124;BME280;63818;37.134;-8.548;2024-02-16T08:11:14;102336.9;;;15.5;85.7
72124;BME280;63818;37.134;-8.548;2024-02-16T08:16:03;102297.4;;;15.5;85.4
72124;BME280;63818;37.134;-8.548;2024-02-16T08:20:51;102304.1;;;15.5;85.8
72124;BME280;63818;37.134;-8.548;2024-02-16T08:25:39;102320.3;;;15.6;85.6
72124;BME280;63818;37.134;-8.548;2024-02-16T08:30:27;102327.1;;;15.6;85.5
72124;BME280;63818;37.134;-8.548;2024-02-16T08:35:15;102343.1;;;15.6;85.5
72124;BME280;63818;37.134;-8.548;2024-02-16T08:40:03;102345.5;;;15.6;86.0
72124;BME280;63818;37.134;-8.548;2024-02-16T08:44:51;102344.9;;;15.6;85.9
72124;BME280;63818;37.134;-8.548;2024-02-16T08:49:40;102339.8;;;15.6;85.6
72124;BME280;63818;37.134;-8.548;2024-02-16T08:54:30;102341.6;;;15.6;85.5
72124;BME280;63818;37.134;-8.548;2024-02-16T08:59:19;102365.0;;;15.7;85.4
72124;BME280;63818;37.134;-8.548;2024-02-16T09:04:09;102367.7;;;15.7;85.5
72124;BME280;63818;37.134;-8.548;2024-02-16T09:09:03;102372.2;;;15.8;85.8
72124;BME280;63818;37.134;-8.548;2024-02-16T09:13:53;102381.3;;;15.8;85.9
72124;BME280;63818;37.134;-8.548;2024-02-16T09:18:41;102389.2;;;15.8;85.9
72124;BME280;63818;37.134;-8.548;2024-02-16T09:23:29;102387.2;;;15.8;86.1
72124;BME280;63818;37.134;-8.548;2024-02-16T09:28:18;102397.2;;;15.9;86.3
72124;BME280;63818;37.134;-8.548;2024-02-16T09:33:08;102399.6;;;15.9;86.4
72124;BME280;63818;37.134;-8.548;2024-02-16T09:37:58;102399.0;;;15.9;86.4
72124;BME280;63818;37.134;-8.548;2024-02-16T09:42:48;102383.7;;;16.0;86.5
72124;BME280;63818;37.134;-8.548;2024-02-16T09:47:42;102386.8;;;16.0;86.4
72124;BME280;63818;37.134;-8.548;2024-02-16T09:52:33;102396.0;;;16.1;86.3
72124;BME280;63818;37.134;-8.548;2024-02-16T09:57:21;102399.4;;;16.1;86.1
72124;BME280;63818;37.134;-8.548;2024-02-16T10:02:09;102391.4;;;16.2;85.6
72124;BME280;63818;37.134;-8.548;2024-02-16T10:06:57;102401.4;;;16.2;85.3
72124;BME280;63818;37.134;-8.548;2024-02-16T10:11:45;102417.5;;;16.3;85.3
72124;BME280;63818;37.134;-8.548;2024-02-16T10:16:33;102414.7;;;16.3;85.0
72124;BME280;63818;37.134;-8.548;2024-02-16T10:21:28;102413.3;;;16.3;85.0
72124;BME280;63818;37.134;-8.548;2024-02-16T10:26:16;102419.7;;;16.4;85.0
72124;BME280;63818;37.134;-8.548;2024-02-16T10:31:05;102411.8;;;16.4;84.9
72124;BME280;63818;37.134;-8.548;2024-02-16T10:35:55;102409.8;;;16.5;84.9
72124;BME280;63818;37.134;-8.548;2024-02-16T10:40:43;102423.5;;;16.5;84.4
72124;BME280;63818;37.134;-8.548;2024-02-16T10:45:33;102438.1;;;16.5;84.4
72124;BME280;63818;37.134;-8.548;2024-02-16T10:50:21;102443.7;;;16.6;84.6
72124;BME280;63818;37.134;-8.548;2024-02-16T10:55:11;102448.3;;;16.6;83.8
72124;BME280;63818;37.134;-8.548;2024-02-16T10:59:59;102456.2;;;16.6;83.4
72124;BME280;63818;37.134;-8.548;2024-02-16T11:04:47;102448.2;;;16.6;82.7
72124;BME280;63818;37.134;-8.548;2024-02-16T11:09:36;102459.8;;;16.7;81.9
72124;BME280;63818;37.134;-8.548;2024-02-16T11:14:24;102457.6;;;16.7;79.6
72124;BME280;63818;37.134;-8.548;2024-02-16T11:19:12;102437.8;;;16.8;77.9
72124;BME280;63818;37.134;-8.548;2024-02-16T11:24:08;102432.9;;;16.8;76.2
72124;BME280;63818;37.134;-8.548;2024-02-16T11:28:58;102427.3;;;16.9;73.8
72124;BME280;63818;37.134;-8.548;2024-02-16T11:33:46;102409.2;;;17.0;73.6
72124;BME280;63818;37.134;-8.548;2024-02-16T11:38:40;102408.7;;;16.9;72.8
72124;BME280;63818;37.134;-8.548;2024-02-16T11:43:37;102389.9;;;17.0;71.6
72124;BME280;63818;37.134;-8.548;2024-02-16T11:48:26;102381.6;;;17.0;69.3
72124;BME280;63818;37.134;-8.548;2024-02-16T11:53:16;102383.6;;;17.1;68.6
72124;BME280;63818;37.134;-8.548;2024-02-16T11:58:07;102383.5;;;17.1;68.1
72124;BME280;63818;37.134;-8.548;2024-02-16T12:03:01;102389.9;;;17.2;66.5
72124;BME280;63818;37.134;-8.548;2024-02-16T12:07:52;102399.0;;;17.2;67.7
72124;BME280;63818;37.134;-8.548;2024-02-16T12:12:40;102388.8;;;17.3;67.2
72124;BME280;63818;37.134;-8.548;2024-02-16T12:17:30;102398.6;;;17.3;67.5
72124;BME280;63818;37.134;-8.548;2024-02-16T12:22:21;102396.2;;;17.4;68.1
72124;BME280;63818;37.134;-8.548;2024-02-16T12:27:09;102379.1;;;17.4;66.7
72124;BME280;63818;37.134;-8.548;2024-02-16T12:31:57;102379.0;;;17.4;66.6
72124;BME280;63818;37.134;-8.548;2024-02-16T12:36:49;102369.7;;;17.4;65.9
72124;BME280;63818;37.134;-8.548;2024-02-16T12:41:50;102358.5;;;17.5;65.5
72124;BME280;63818;37.134;-8.548;2024-02-16T12:46:38;102345.8;;;17.5;63.7
72124;BME280;63818;37.134;-8.548;2024-02-16T12:51:26;102332.7;;;17.5;63.9
72124;BME280;63818;37.134;-8.548;2024-02-16T12:56:14;102335.1;;;17.6;64.6
72124;BME280;63818;37.134;-8.548;2024-02-16T13:01:04;102314.4;;;17.7;63.6
72124;BME280;63818;37.134;-8.548;2024-02-16T13:05:53;102315.8;;;17.8;64.0
72124;BME280;63818;37.134;-8.548;2024-02-16T13:10:41;102295.0;;;17.8;63.8
72124;BME280;63818;37.134;-8.548;2024-02-16T13:15:39;102286.6;;;17.9;63.5
72124;BME280;63818;37.134;-8.548;2024-02-16T13:20:32;102291.0;;;17.9;62.0
72124;BME280;63818;37.134;-8.548;2024-02-16T13:25:20;102272.7;;;17.9;62.9
72124;BME280;63818;37.134;-8.548;2024-02-16T13:30:11;102274.4;;;18.0;63.5
72124;BME280;63818;37.134;-8.548;2024-02-16T13:34:59;102262.3;;;17.9;62.2
72124;BME280;63818;37.134;-8.548;2024-02-16T13:39:47;102270.7;;;18.0;63.2
72124;BME280;63818;37.134;-8.548;2024-02-16T13:44:46;102260.2;;;18.0;62.9
72124;BME280;63818;37.134;-8.548;2024-02-16T13:49:34;102259.7;;;18.0;62.8
72124;BME280;63818;37.134;-8.548;2024-02-16T13:54:24;102272.5;;;18.0;61.6
72124;BME280;63818;37.134;-8.548;2024-02-16T13:59:12;102281.6;;;18.1;62.9
72124;BME280;63818;37.134;-8.548;2024-02-16T14:04:01;102282.1;;;18.1;63.4
72124;BME280;63818;37.134;-8.548;2024-02-16T14:08:52;102267.5;;;18.1;61.9
72124;BME280;63818;37.134;-8.548;2024-02-16T14:13:40;102266.7;;;18.2;62.4
72124;BME280;63818;37.134;-8.548;2024-02-16T14:18:30;102248.8;;;18.3;62.5
72124;BME280;63818;37.134;-8.548;2024-02-16T14:23:21;102231.2;;;18.4;60.8
72124;BME280;63818;37.134;-8.548;2024-02-16T14:28:09;102238.4;;;18.5;61.5
72124;BME280;63818;37.134;-8.548;2024-02-16T14:32:57;102233.1;;;18.6;61.3
72124;BME280;63818;37.134;-8.548;2024-02-16T14:37:48;102220.4;;;18.8;60.4
72124;BME280;63818;37.134;-8.548;2024-02-16T14:42:38;102224.7;;;18.9;61.7
72124;BME280;63818;37.134;-8.548;2024-02-16T14:47:26;102223.3;;;19.1;60.1
72124;BME280;63818;37.134;-8.548;2024-02-16T14:52:14;102227.1;;;19.2;58.2
72124;BME280;63818;37.134;-8.548;2024-02-16T14:57:03;102212.7;;;19.4;58.7
72124;BME280;63818;37.134;-8.548;2024-02-16T15:01:55;102226.9;;;19.6;55.4
72124;BME280;63818;37.134;-8.548;2024-02-16T15:06:44;102222.9;;;19.6;55.6
72124;BME280;63818;37.134;-8.548;2024-02-16T15:11:33;102228.8;;;19.8;56.2
72124;BME280;63818;37.134;-8.548;2024-02-16T15:16:21;102225.2;;;20.2;55.9
72124;BME280;63818;37.134;-8.548;2024-02-16T15:21:12;102215.8;;;20.5;52.8
72124;BME280;63818;37.134;-8.548;2024-02-16T15:26:01;102220.8;;;20.8;52.1
72124;BME280;63818;37.134;-8.548;2024-02-16T15:30:51;102218.9;;;21.3;50.4
72124;BME280;63818;37.134;-8.548;2024-02-16T15:35:39;102229.4;;;21.5;50.8
72124;BME280;63818;37.134;-8.548;2024-02-16T15:40:37;102216.3;;;21.7;49.4
72124;BME280;63818;37.134;-8.548;2024-02-16T15:45:26;102223.8;;;21.9;48.7
72124;BME280;63818;37.134;-8.548;2024-02-16T15:50:14;102223.7;;;21.7;49.2
72124;BME280;63818;37.134;-8.548;2024-02-16T15:55:02;102221.1;;;22.0;48.4
72124;BME280;63818;37.134;-8.548;2024-02-16T15:59:52;102228.8;;;21.4;50.0
72124;BME280;63818;37.134;-8.548;2024-02-16T16:04:40;102218.6;;;20.9;51.3
72124;BME280;63818;37.134;-8.548;2024-02-16T16:09:30;102225.9;;;21.0;50.8
72124;BME280;63818;37.134;-8.548;2024-02-16T16:14:20;102225.4;;;20.7;51.7
72124;BME280;63818;37.134;-8.548;2024-02-16T16:19:08;102224.6;;;20.7;51.5
72124;BME280;63818;37.134;-8.548;2024-02-16T16:23:56;102219.5;;;20.7;51.5
72124;BME280;63818;37.134;-8.548;2024-02-16T16:28:44;102225.9;;;20.5;52.3
72124;BME280;63818;37.134;-8.548;2024-02-16T16:33:32;102236.3;;;20.2;52.6
72124;BME280;63818;37.134;-8.548;2024-02-16T16:38:23;102251.0;;;20.0;55.0
72124;BME280;63818;37.134;-8.548;2024-02-16T16:43:13;102264.8;;;19.8;56.0
72124;BME280;63818;37.134;-8.548;2024-02-16T16:48:01;102276.8;;;19.6;56.9
72124;BME280;63818;37.134;-8.548;2024-02-16T16:52:58;102285.2;;;19.4;56.8
72124;BME280;63818;37.134;-8.548;2024-02-16T16:57:48;102277.2;;;19.3;57.9
72124;BME280;63818;37.134;-8.548;2024-02-16T17:02:36;102274.5;;;19.3;58.7
72124;BME280;63818;37.134;-8.548;2024-02-16T17:07:31;102291.2;;;19.3;59.7
72124;BME280;63818;37.134;-8.548;2024-02-16T17:12:20;102294.4;;;19.1;60.5
72124;BME280;63818;37.134;-8.548;2024-02-16T17:17:09;102312.4;;;19.2;61.1
72124;BME280;63818;37.134;-8.548;2024-02-16T17:22:01;102301.6;;;19.2;61.2
72124;BME280;63818;37.134;-8.548;2024-02-16T17:26:50;102310.9;;;19.2;61.2
72124;BME280;63818;37.134;-8.548;2024-02-16T17:31:38;102314.1;;;19.2;60.9
72124;BME280;63818;37.134;-8.548;2024-02-16T17:36:33;102308.9;;;19.1;60.9
72124;BME280;63818;37.134;-8.548;2024-02-16T17:41:22;102309.5;;;19.0;61.7
72124;BME280;63818;37.134;-8.548;2024-02-16T17:46:10;102305.8;;;18.9;62.8
72124;BME280;63818;37.134;-8.548;2024-02-16T17:50:59;102315.9;;;18.8;62.7
72124;BME280;63818;37.134;-8.548;2024-02-16T17:55:47;102310.3;;;18.7;63.1
72124;BME280;63818;37.134;-8.548;2024-02-16T18:00:35;102324.0;;;18.6;63.6
72124;BME280;63818;37.134;-8.548;2024-02-16T18:05:23;102330.8;;;18.5;65.0
72124;BME280;63818;37.134;-8.548;2024-02-16T18:10:11;102337.0;;;18.5;65.5
72124;BME280;63818;37.134;-8.548;2024-02-16T18:14:59;102349.8;;;18.3;67.6
72124;BME280;63818;37.134;-8.548;2024-02-16T18:19:47;102347.6;;;18.1;68.4
72124;BME280;63818;37.134;-8.548;2024-02-16T18:24:35;102364.5;;;17.9;69.8
72124;BME280;63818;37.134;-8.548;2024-02-16T18:29:24;102380.8;;;17.9;70.6
72124;BME280;63818;37.134;-8.548;2024-02-16T18:34:12;102401.7;;;17.8;72.2
72124;BME280;63818;37.134;-8.548;2024-02-16T18:39:00;102399.2;;;17.7;73.1
72124;BME280;63818;37.134;-8.548;2024-02-16T18:43:50;102402.1;;;17.6;73.6
72124;BME280;63818;37.134;-8.548;2024-02-16T18:48:38;102419.1;;;17.5;74.0
72124;BME280;63818;37.134;-8.548;2024-02-16T18:53:26;102420.7;;;17.5;75.4
72124;BME280;63818;37.134;-8.548;2024-02-16T18:58:14;102439.0;;;17.4;76.0
72124;BME280;63818;37.134;-8.548;2024-02-16T19:03:02;102444.0;;;17.4;76.3
72124;BME280;63818;37.134;-8.548;2024-02-16T19:07:52;102454.7;;;17.3;76.6
72124;BME280;63818;37.134;-8.548;2024-02-16T19:12:40;102462.5;;;17.4;77.1
72124;BME280;63818;37.134;-8.548;2024-02-16T19:17:28;102464.1;;;17.3;78.0
72124;BME280;63818;37.134;-8.548;2024-02-16T19:22:16;102469.4;;;17.3;78.2
72124;BME280;63818;37.134;-8.548;2024-02-16T19:27:04;102479.3;;;17.4;78.4
72124;BME280;63818;37.134;-8.548;2024-02-16T19:31:53;102485.7;;;17.4;78.5
72124;BME280;63818;37.134;-8.548;2024-02-16T19:36:41;102493.3;;;17.5;78.6
72124;BME280;63818;37.134;-8.548;2024-02-16T19:41:29;102498.5;;;17.4;79.2
72124;BME280;63818;37.134;-8.548;2024-02-16T19:46:18;102494.3;;;17.4;79.8
72124;BME280;63818;37.134;-8.548;2024-02-16T19:51:06;102498.3;;;17.3;80.3
72124;BME280;63818;37.134;-8.548;2024-02-16T19:55:54;102505.5;;;17.2;80.7
72124;BME280;63818;37.134;-8.548;2024-02-16T20:00:42;102495.7;;;17.2;80.7
72124;BME280;63818;37.134;-8.548;2024-02-16T20:05:30;102494.0;;;17.3;80.5
72124;BME280;63818;37.134;-8.548;2024-02-16T20:10:18;102506.0;;;17.2;80.8
72124;BME280;63818;37.134;-8.548;2024-02-16T20:15:07;102495.7;;;17.2;80.7
72124;BME280;63818;37.134;-8.548;2024-02-16T20:19:55;102501.9;;;17.2;80.7
72124;BME280;63818;37.134;-8.548;2024-02-16T20:24:43;102508.0;;;17.2;80.3
72124;BME280;63818;37.134;-8.548;2024-02-16T20:29:31;102512.8;;;17.2;80.6
72124;BME280;63818;37.134;-8.548;2024-02-16T20:34:19;102510.1;;;17.2;80.6
72124;BME280;63818;37.134;-8.548;2024-02-16T20:39:07;102516.0;;;17.3;80.3
72124;BME280;63818;37.134;-8.548;2024-02-16T20:43:55;102524.3;;;17.3;80.1
72124;BME280;63818;37.134;-8.548;2024-02-16T20:48:43;102524.8;;;17.3;79.7
72124;BME280;63818;37.134;-8.548;2024-02-16T20:53:31;102525.6;;;17.3;79.7
72124;BME280;63818;37.134;-8.548;2024-02-16T20:58:19;102523.8;;;17.3;79.5
72124;BME280;63818;37.134;-8.548;2024-02-16T21:03:07;102533.3;;;17.3;80.0
72124;BME280;63818;37.134;-8.548;2024-02-16T21:07:55;102536.3;;;17.3;80.0
72124;BME280;63818;37.134;-8.548;2024-02-16T21:12:46;102534.3;;;17.1;80.4
72124;BME280;63818;37.134;-8.548;2024-02-16T21:17:34;102545.0;;;17.1;80.6
72124;BME280;63818;37.134;-8.548;2024-02-16T21:22:22;102563.0;;;17.1;80.7
72124;BME280;63818;37.134;-8.548;2024-02-16T21:27:10;102555.3;;;17.2;80.8
72124;BME280;63818;37.134;-8.548;2024-02-16T21:31:58;102561.3;;;17.2;80.9
72124;BME280;63818;37.134;-8.548;2024-02-16T21:36:46;102562.4;;;17.2;81.4
72124;BME280;63818;37.134;-8.548;2024-02-16T21:41:34;102554.1;;;17.1;81.4
72124;BME280;63818;37.134;-8.548;2024-02-16T21:46:30;102558.7;;;17.0;81.8
72124;BME280;63818;37.134;-8.548;2024-02-16T21:51:18;102569.8;;;16.9;82.8
72124;BME280;63818;37.134;-8.548;2024-02-16T21:56:06;102569.6;;;16.9;83.4
72124;BME280;63818;37.134;-8.548;2024-02-16T22:00:54;102584.6;;;16.8;83.6
72124;BME280;63818;37.134;-8.548;2024-02-16T22:05:42;102585.4;;;16.7;83.9
72124;BME280;63818;37.134;-8.548;2024-02-16T22:10:30;102574.3;;;16.5;85.2
72124;BME280;63818;37.134;-8.548;2024-02-16T22:15:18;102602.9;;;16.5;85.4
72124;BME280;63818;37.134;-8.548;2024-02-16T22:20:07;102608.6;;;16.3;87.0
72124;BME280;63818;37.134;-8.548;2024-02-16T22:24:55;102607.5;;;16.4;87.4
72124;BME280;63818;37.134;-8.548;2024-02-16T22:29:43;102612.5;;;16.3;87.8
72124;BME280;63818;37.134;-8.548;2024-02-16T22:34:30;102611.6;;;16.3;88.0
72124;BME280;63818;37.134;-8.548;2024-02-16T22:39:18;102622.9;;;16.4;88.1
72124;BME280;63818;37.134;-8.548;2024-02-16T22:44:08;102618.9;;;16.4;87.9
72124;BME280;63818;37.134;-8.548;2024-02-16T22:48:56;102613.9;;;16.4;87.8
72124;BME280;63818;37.134;-8.548;2024-02-16T22:53:46;102601.7;;;16.4;87.2
72124;BME280;63818;37.134;-8.548;2024-02-16T22:58:34;102607.5;;;16.4;86.9
72124;BME280;63818;37.134;-8.548;2024-02-16T23:03:22;102620.2;;;16.4;86.6
72124;BME280;63818;37.134;-8.548;2024-02-16T23:08:10;102625.2;;;16.5;85.8
72124;BME280;63818;37.134;-8.548;2024-02-16T23:13:01;102626.3;;;16.5;85.2
72124;BME280;63818;37.134;-8.548;2024-02-16T23:17:49;102622.6;;;16.5;84.9
72124;BME280;63818;37.134;-8.548;2024-02-16T23:22:58;102624.4;;;16.6;84.3
72124;BME280;63818;37.134;-8.548;2024-02-16T23:27:46;102623.8;;;16.6;83.8
72124;BME280;63818;37.134;-8.548;2024-02-16T23:32:34;102618.4;;;16.6;82.7
72124;BME280;63818;37.134;-8.548;2024-02-16T23:37:22;102633.6;;;16.6;82.5
72124;BME280;63818;37.134;-8.548;2024-02-16T23:42:10;102623.5;;;16.6;82.3
72124;BME280;63818;37.134;-8.548;2024-02-16T23:46:58;102632.2;;;16.7;83.3
72124;BME280;63818;37.134;-8.548;2024-02-16T23:51:46;102631.1;;;16.7;83.1
72124;BME280;63818;37.134;-8.548;2024-02-16T23:56:33;102638.9;;;16.7;83.7
